Time;durP1;ratioP1;P1;durP2;ratioP2;P2;SDS_P1;SDS_P2;PMS_P1;PMS_P2;Temp;Humidity;BMP_temperature;BMP_pressure;BME280_temperature;BME280_humidity;BME280_pressure;Samples;Min_cycle;Max_cycle;Signal;HPM_P1;HPM_P2
2021/01/07 00:02:24;;;;;;;10.95;6.22;;;2.20;99.90;;;;;;5051974;28;20029;-83
2021/01/07 00:04:50;;;;;;;10.93;5.85;;;2.20;99.90;;;;;;5073003;28;20028;-83
2021/01/07 00:07:15;;;;;;;8.85;5.35;;;2.20;99.90;;;;;;5053257;28;20595;-84
2021/01/07 00:09:41;;;;;;;12.52;6.00;;;2.20;99.90;;;;;;5049785;28;20028;-84
2021/01/07 00:12:07;;;;;;;9.70;6.05;;;2.10;99.90;;;;;;5073921;28;20012;-83
2021/01/07 00:14:32;;;;;;;10.02;5.95;;;2.10;99.90;;;;;;5050510;28;20052;-83
2021/01/07 00:16:58;;;;;;;9.32;5.28;;;2.10;99.90;;;;;;5071912;28;20024;-84
2021/01/07 00:19:23;;;;;;;9.73;5.75;;;2.10;99.90;;;;;;5072451;28;20474;-84
2021/01/07 00:21:49;;;;;;;10.63;5.75;;;2.10;99.90;;;;;;5055820;28;20456;-83
2021/01/07 00:24:14;;;;;;;9.65;5.43;;;2.10;99.90;;;;;;5072820;28;20017;-84
2021/01/07 00:26:40;;;;;;;9.82;5.85;;;2.20;99.90;;;;;;5072822;28;20465;-84
2021/01/07 00:29:06;;;;;;;9.88;5.82;;;2.10;99.90;;;;;;5073412;28;20016;-84
2021/01/07 00:31:32;;;;;;;8.38;5.40;;;2.10;99.90;;;;;;5041559;28;20023;-84
2021/01/07 00:33:57;;;;;;;9.65;5.15;;;2.20;99.90;;;;;;5052638;28;20119;-84
2021/01/07 00:36:23;;;;;;;12.32;6.18;;;2.10;99.90;;;;;;5070731;28;20433;-84
2021/01/07 00:38:49;;;;;;;9.95;5.68;;;2.10;99.90;;;;;;5054174;28;20108;-84
2021/01/07 00:41:18;;;;;;;9.75;4.90;;;2.10;99.90;;;;;;5072538;28;20468;-83
2021/01/07 00:43:45;;;;;;;11.15;6.22;;;2.20;99.90;;;;;;5049574;28;20025;-84
2021/01/07 00:46:11;;;;;;;10.75;5.78;;;2.10;99.90;;;;;;5055124;28;20318;-84
2021/01/07 00:48:37;;;;;;;8.60;5.20;;;2.20;99.90;;;;;;5053343;28;20488;-84
2021/01/07 00:51:02;;;;;;;9.07;5.18;;;2.10;99.90;;;;;;5077325;28;20119;-84
2021/01/07 00:53:28;;;;;;;8.77;4.80;;;2.10;99.90;;;;;;5086302;28;20036;-83
2021/01/07 00:55:54;;;;;;;8.88;4.95;;;2.10;99.90;;;;;;5090416;28;20021;-84
2021/01/07 00:58:19;;;;;;;9.57;4.97;;;2.10;99.90;;;;;;5086598;28;20054;-84
2021/01/07 01:00:45;;;;;;;10.05;5.20;;;2.10;99.90;;;;;;5088034;28;20485;-83
2021/01/07 01:03:10;;;;;;;9.35;4.35;;;2.10;99.90;;;;;;5091660;28;20468;-83
2021/01/07 01:05:36;;;;;;;8.50;5.82;;;2.10;99.90;;;;;;5082388;28;20032;-83
2021/01/07 01:08:01;;;;;;;10.88;5.18;;;2.10;99.90;;;;;;5091359;28;20021;-83
2021/01/07 01:10:27;;;;;;;8.65;5.13;;;2.10;99.90;;;;;;5086069;28;20454;-84
2021/01/07 01:12:52;;;;;;;8.95;5.03;;;2.10;99.90;;;;;;5088793;28;20386;-84
2021/01/07 01:15:18;;;;;;;9.27;5.60;;;2.00;99.90;;;;;;5083605;28;20063;-84
2021/01/07 01:17:44;;;;;;;8.95;5.15;;;2.00;99.90;;;;;;5084591;28;20485;-83
2021/01/07 01:20:11;;;;;;;8.70;4.47;;;2.00;99.90;;;;;;5089659;28;20028;-84
2021/01/07 01:22:37;;;;;;;12.57;5.13;;;2.00;99.90;;;;;;5090766;28;20050;-83
2021/01/07 01:25:08;;;;;;;8.88;4.97;;;2.00;99.90;;;;;;5089624;28;20467;-84
2021/01/07 01:27:37;;;;;;;8.50;4.40;;;2.00;99.90;;;;;;5091265;28;20024;-84
2021/01/07 01:30:05;;;;;;;9.43;4.60;;;2.00;99.90;;;;;;5085807;28;20027;-83
2021/01/07 01:32:31;;;;;;;8.68;4.53;;;2.00;99.90;;;;;;5090238;28;20024;-84
2021/01/07 01:34:56;;;;;;;8.23;4.60;;;2.00;99.90;;;;;;5084017;28;20481;-84
2021/01/07 01:37:22;;;;;;;8.32;4.93;;;2.00;99.90;;;;;;5089967;28;20514;-83
2021/01/07 01:39:48;;;;;;;7.20;4.13;;;1.90;99.90;;;;;;5084607;28;20024;-84
2021/01/07 01:42:13;;;;;;;8.00;4.18;;;1.90;99.90;;;;;;5085640;28;20024;-84
2021/01/07 01:44:39;;;;;;;8.85;4.38;;;1.90;99.90;;;;;;5092040;28;20167;-83
2021/01/07 01:47:04;;;;;;;7.43;4.90;;;1.90;99.90;;;;;;5089979;28;20026;-84
2021/01/07 01:49:30;;;;;;;11.43;5.25;;;1.90;99.90;;;;;;5090062;28;20020;-83
2021/01/07 01:51:55;;;;;;;11.38;5.15;;;1.90;99.90;;;;;;5085260;28;20044;-84
2021/01/07 01:54:21;;;;;;;9.45;5.38;;;1.90;99.90;;;;;;5084738;28;20020;-83
2021/01/07 01:56:49;;;;;;;11.07;5.47;;;1.80;99.90;;;;;;5089637;28;20455;-83
2021/01/07 01:59:18;;;;;;;10.30;5.05;;;1.90;99.90;;;;;;5084761;28;20024;-83
2021/01/07 02:01:44;;;;;;;10.98;5.68;;;1.90;99.90;;;;;;5089268;28;20567;-83
2021/01/07 02:04:09;;;;;;;9.00;5.20;;;1.80;99.90;;;;;;5083884;28;20063;-84
2021/01/07 02:06:40;;;;;;;12.20;5.57;;;1.90;99.90;;;;;;5083729;28;20024;-84
2021/01/07 02:09:07;;;;;;;8.93;5.20;;;1.90;99.90;;;;;;5091081;28;20051;-83
2021/01/07 02:11:34;;;;;;;8.93;5.22;;;1.90;99.90;;;;;;5087951;28;20073;-84
2021/01/07 02:14:01;;;;;;;6.15;4.00;;;1.90;99.90;;;;;;5089530;28;20025;-83
2021/01/07 02:16:26;;;;;;;7.55;4.88;;;1.80;99.90;;;;;;5087469;28;20046;-84
2021/01/07 02:18:56;;;;;;;8.38;4.63;;;1.80;99.90;;;;;;5085366;28;20021;-84
2021/01/07 02:21:22;;;;;;;8.07;4.43;;;1.90;99.90;;;;;;5085132;28;20016;-84
2021/01/07 02:23:55;;;;;;;10.55;4.85;;;1.90;99.90;;;;;;5089193;28;20307;-84
2021/01/07 02:26:22;;;;;;;10.05;5.03;;;1.90;99.90;;;;;;5087700;28;20055;-84
2021/01/07 02:28:49;;;;;;;7.60;4.93;;;1.90;99.90;;;;;;5089638;28;20027;-84
2021/01/07 02:31:15;;;;;;;8.02;4.57;;;1.80;99.90;;;;;;5089165;28;20023;-84
2021/01/07 02:33:41;;;;;;;7.88;5.18;;;1.80;99.90;;;;;;5088719;28;20020;-84
2021/01/07 02:36:07;;;;;;;6.82;3.75;;;1.80;99.90;;;;;;5091157;28;20016;-84
2021/01/07 02:38:33;;;;;;;8.93;4.90;;;1.80;99.90;;;;;;5089478;28;20034;-84
2021/01/07 02:40:59;;;;;;;9.18;5.18;;;1.80;99.90;;;;;;5083676;28;20012;-84
2021/01/07 02:43:24;;;;;;;9.48;4.80;;;1.80;99.90;;;;;;5090473;28;20107;-83
2021/01/07 02:45:50;;;;;;;8.52;4.88;;;1.80;99.90;;;;;;5084850;28;20024;-84
2021/01/07 02:48:16;;;;;;;10.10;4.97;;;1.70;99.90;;;;;;5078686;28;20016;-84
2021/01/07 02:50:41;;;;;;;8.32;4.65;;;1.70;99.90;;;;;;5086319;28;20115;-84
2021/01/07 02:53:07;;;;;;;8.25;5.15;;;1.70;99.90;;;;;;5052705;28;20542;-84
2021/01/07 02:55:32;;;;;;;7.65;4.53;;;1.70;99.90;;;;;;5052561;28;20048;-84
2021/01/07 02:57:58;;;;;;;10.02;5.90;;;1.60;99.90;;;;;;5050986;28;20017;-84
2021/01/07 03:00:24;;;;;;;8.52;5.15;;;1.60;99.90;;;;;;5051141;28;20019;-84
2021/01/07 03:02:50;;;;;;;7.47;5.00;;;1.60;99.90;;;;;;5067480;28;20116;-84
2021/01/07 03:05:15;;;;;;;8.95;4.80;;;1.50;99.90;;;;;;5050266;28;20372;-84
2021/01/07 03:07:41;;;;;;;8.15;5.00;;;1.60;99.90;;;;;;5069168;28;20147;-84
2021/01/07 03:10:09;;;;;;;11.40;5.32;;;1.50;99.90;;;;;;5052766;28;20055;-84
2021/01/07 03:12:34;;;;;;;10.30;5.07;;;1.50;99.90;;;;;;5050085;28;20140;-84
2021/01/07 03:15:00;;;;;;;8.35;4.47;;;1.60;99.90;;;;;;5054459;28;20519;-84
2021/01/07 03:17:25;;;;;;;8.38;5.13;;;1.60;99.90;;;;;;5054938;28;20495;-84
2021/01/07 03:19:51;;;;;;;6.50;4.20;;;1.60;99.90;;;;;;5053076;28;20103;-84
2021/01/07 03:22:16;;;;;;;6.57;4.15;;;1.60;99.90;;;;;;5055321;28;20020;-84
2021/01/07 03:24:42;;;;;;;10.52;4.93;;;1.60;99.90;;;;;;5054604;28;20117;-84
2021/01/07 03:27:07;;;;;;;7.40;4.90;;;1.60;99.90;;;;;;5055988;28;20024;-84
2021/01/07 03:29:33;;;;;;;6.78;4.50;;;1.60;99.90;;;;;;5056235;28;20059;-84
2021/01/07 03:31:59;;;;;;;8.77;5.38;;;1.60;99.90;;;;;;5054031;28;20047;-84
2021/01/07 03:34:25;;;;;;;7.03;4.03;;;1.70;99.90;;;;;;5054437;28;20021;-84
2021/01/07 03:36:50;;;;;;;5.50;4.13;;;1.70;99.90;;;;;;5052553;28;20380;-84
2021/01/07 03:39:16;;;;;;;8.32;4.78;;;1.70;99.90;;;;;;5055131;28;20024;-84
2021/01/07 03:41:42;;;;;;;7.03;4.50;;;1.70;99.90;;;;;;5054147;28;20017;-84
2021/01/07 03:44:08;;;;;;;8.35;5.05;;;1.80;99.90;;;;;;5056005;28;20028;-84
2021/01/07 03:46:34;;;;;;;8.15;4.63;;;1.80;99.90;;;;;;5050905;28;20048;-84
2021/01/07 03:48:59;;;;;;;7.15;4.95;;;1.80;99.90;;;;;;5054068;28;20475;-84
2021/01/07 03:51:25;;;;;;;8.32;4.28;;;1.80;99.90;;;;;;5068361;28;20048;-84
2021/01/07 03:53:51;;;;;;;5.85;3.95;;;1.80;99.90;;;;;;5086872;28;20107;-84
2021/01/07 03:56:16;;;;;;;6.78;3.97;;;1.80;99.90;;;;;;5087458;28;20065;-84
2021/01/07 03:58:42;;;;;;;5.30;3.35;;;1.90;99.90;;;;;;5087836;28;20027;-84
2021/01/07 04:01:07;;;;;;;7.07;3.45;;;1.90;99.90;;;;;;5087467;28;20016;-84
2021/01/07 04:03:33;;;;;;;7.63;3.83;;;1.90;99.90;;;;;;5092492;28;20055;-84
2021/01/07 04:05:59;;;;;;;5.53;3.20;;;1.90;99.90;;;;;;5088341;28;20016;-84
2021/01/07 04:08:24;;;;;;;4.82;2.63;;;2.00;99.90;;;;;;5093441;28;20040;-84
2021/01/07 04:10:50;;;;;;;6.07;3.55;;;2.00;99.90;;;;;;5092828;28;20058;-84
2021/01/07 04:13:15;;;;;;;4.35;2.60;;;2.00;99.90;;;;;;5087144;28;20127;-83
2021/01/07 04:15:41;;;;;;;3.38;2.33;;;2.10;99.90;;;;;;5087203;28;20039;-84
2021/01/07 04:18:06;;;;;;;4.05;2.47;;;2.10;99.90;;;;;;5088169;28;20044;-84
2021/01/07 04:20:32;;;;;;;3.22;2.25;;;2.10;99.90;;;;;;5087138;28;20070;-84
2021/01/07 04:22:57;;;;;;;4.70;2.75;;;2.20;99.90;;;;;;5086589;28;20027;-84
2021/01/07 04:25:23;;;;;;;5.90;3.45;;;2.20;99.90;;;;;;5087435;28;20115;-84
2021/01/07 04:27:48;;;;;;;5.85;3.80;;;2.20;99.90;;;;;;5086384;28;20027;-84
2021/01/07 04:30:14;;;;;;;5.90;4.07;;;2.20;99.90;;;;;;5092247;28;20024;-84
2021/01/07 04:32:40;;;;;;;5.47;3.60;;;2.20;99.90;;;;;;5084148;28;20101;-83
2021/01/07 04:35:06;;;;;;;7.10;4.28;;;2.10;99.90;;;;;;5086775;28;20008;-84
2021/01/07 04:37:32;;;;;;;8.38;5.22;;;2.10;99.90;;;;;;5091768;28;20039;-84
2021/01/07 04:39:57;;;;;;;9.40;5.30;;;2.10;99.90;;;;;;5089458;28;20016;-84
2021/01/07 04:42:23;;;;;;;8.75;5.80;;;2.10;99.90;;;;;;5092535;28;20487;-84
2021/01/07 04:44:49;;;;;;;9.52;6.13;;;2.10;99.90;;;;;;5086281;28;20395;-84
2021/01/07 04:47:16;;;;;;;9.85;5.88;;;2.10;99.90;;;;;;5089465;28;20537;-83
2021/01/07 04:49:41;;;;;;;8.57;5.60;;;2.00;99.90;;;;;;5082775;28;20035;-83
2021/01/07 04:52:07;;;;;;;7.97;5.60;;;2.00;99.90;;;;;;5091232;28;20044;-84
2021/01/07 04:54:32;;;;;;;13.73;7.32;;;2.00;99.90;;;;;;5091192;28;20023;-84
2021/01/07 04:56:59;;;;;;;10.20;6.45;;;2.00;99.90;;;;;;5093309;28;20541;-83
2021/01/07 04:59:24;;;;;;;10.00;6.50;;;2.00;99.90;;;;;;5089017;28;20467;-84
2021/01/07 05:01:50;;;;;;;12.68;6.80;;;2.00;99.90;;;;;;5090785;28;20028;-83
2021/01/07 05:04:17;;;;;;;9.27;6.47;;;1.90;99.90;;;;;;5086195;28;20069;-84
2021/01/07 05:06:46;;;;;;;11.13;6.97;;;1.90;99.90;;;;;;5088622;28;20020;-83
2021/01/07 05:09:12;;;;;;;12.02;7.97;;;1.90;99.90;;;;;;5090974;28;20077;-83
2021/01/07 05:11:38;;;;;;;13.43;7.57;;;1.90;99.90;;;;;;5092521;28;20032;-83
2021/01/07 05:14:08;;;;;;;13.02;8.07;;;1.90;99.90;;;;;;5092611;28;20097;-83
2021/01/07 05:16:34;;;;;;;12.27;7.50;;;1.90;99.90;;;;;;5083381;28;20012;-84
2021/01/07 05:19:05;;;;;;;14.63;8.65;;;1.90;99.90;;;;;;5090816;28;20023;-83
2021/01/07 05:21:31;;;;;;;12.27;8.07;;;1.90;99.90;;;;;;5087852;28;20085;-84
2021/01/07 05:23:58;;;;;;;12.93;8.20;;;1.90;99.90;;;;;;5090319;28;20069;-84
2021/01/07 05:26:23;;;;;;;13.90;7.95;;;2.00;99.90;;;;;;5090855;28;20031;-83
2021/01/07 05:28:51;;;;;;;13.65;8.38;;;2.00;99.90;;;;;;5085831;28;20024;-83
2021/01/07 05:31:25;;;;;;;13.38;8.35;;;2.00;99.90;;;;;;5085952;28;20085;-83
2021/01/07 05:33:52;;;;;;;15.10;8.77;;;2.00;99.90;;;;;;5089530;28;20024;-83
2021/01/07 05:36:26;;;;;;;17.50;9.75;;;2.00;99.90;;;;;;5083461;28;20038;-83
2021/01/07 05:38:55;;;;;;;15.98;9.40;;;2.00;99.90;;;;;;5090996;28;20027;-83
2021/01/07 05:41:23;;;;;;;18.02;9.63;;;2.00;99.90;;;;;;5084434;28;20099;-83
2021/01/07 05:44:05;;;;;;;16.58;9.68;;;2.00;99.90;;;;;;5074286;28;20449;-83
2021/01/07 05:46:32;;;;;;;14.70;9.45;;;2.00;99.90;;;;;;5082008;28;20112;-83
2021/01/07 05:48:58;;;;;;;15.68;9.38;;;2.00;99.90;;;;;;5084277;28;20362;-83
2021/01/07 05:51:29;;;;;;;14.32;9.05;;;2.00;99.90;;;;;;5089865;28;20046;-83
2021/01/07 05:53:57;;;;;;;14.32;9.18;;;2.00;99.90;;;;;;5084340;28;20062;-83
2021/01/07 05:56:24;;;;;;;15.50;9.45;;;2.10;99.90;;;;;;5091973;28;20442;-84
2021/01/07 05:58:51;;;;;;;14.50;8.68;;;2.10;99.90;;;;;;5085221;28;20760;-83
2021/01/07 06:01:18;;;;;;;16.25;9.30;;;2.10;99.90;;;;;;5074126;28;20020;-84
2021/01/07 06:03:51;;;;;;;14.27;9.57;;;2.10;99.90;;;;;;5088837;28;20395;-83
2021/01/07 06:06:18;;;;;;;16.35;10.23;;;2.10;99.90;;;;;;5085836;28;20402;-83
2021/01/07 06:08:52;;;;;;;15.63;9.13;;;2.10;99.90;;;;;;5090946;28;20038;-83
2021/01/07 06:11:19;;;;;;;14.55;8.98;;;2.10;99.90;;;;;;5086724;28;20119;-83
2021/01/07 06:13:47;;;;;;;15.85;8.88;;;2.10;99.90;;;;;;5086406;28;20024;-83
2021/01/07 06:16:21;;;;;;;16.13;9.98;;;2.10;99.90;;;;;;5092277;28;20085;-83
2021/01/07 06:18:47;;;;;;;15.57;8.55;;;2.10;99.90;;;;;;5091009;28;20032;-83
2021/01/07 06:21:13;;;;;;;14.63;9.02;;;2.10;99.90;;;;;;5091917;28;20031;-83
2021/01/07 06:23:44;;;;;;;13.68;8.15;;;2.10;99.90;;;;;;5091050;28;20027;-84
2021/01/07 06:26:24;;;;;;;14.43;8.13;;;2.10;99.90;;;;;;5091490;28;20483;-83
2021/01/07 06:28:58;;;;;;;11.93;7.32;;;2.10;99.90;;;;;;5092617;28;20169;-83
2021/01/07 06:31:39;;;;;;;15.88;8.93;;;2.10;99.90;;;;;;5088734;28;20107;-83
2021/01/07 06:34:05;;;;;;;11.88;6.70;;;2.10;99.90;;;;;;5088401;28;20031;-84
2021/01/07 06:36:46;;;;;;;13.85;7.25;;;2.20;99.90;;;;;;5091407;28;20020;-83
2021/01/07 06:39:12;;;;;;;9.75;5.65;;;2.20;99.90;;;;;;5091587;28;20052;-84
2021/01/07 06:41:38;;;;;;;12.70;6.13;;;2.20;99.90;;;;;;5091510;28;20058;-83
2021/01/07 06:44:05;;;;;;;12.80;6.63;;;2.10;99.90;;;;;;5091418;28;20059;-83
2021/01/07 06:46:41;;;;;;;12.30;5.70;;;2.20;99.90;;;;;;5094743;28;20024;-84
2021/01/07 06:49:21;;;;;;;11.07;5.95;;;2.20;99.90;;;;;;5091128;28;20032;-84
2021/01/07 06:52:00;;;;;;;10.98;5.85;;;2.20;99.90;;;;;;5074841;28;20041;-84
2021/01/07 06:54:39;;;;;;;10.57;5.35;;;2.20;99.90;;;;;;5046016;28;20037;-84
2021/01/07 06:57:15;;;;;;;11.52;5.43;;;2.20;99.90;;;;;;5047606;28;20024;-84
2021/01/07 07:00:02;;;;;;;12.00;5.82;;;2.20;99.90;;;;;;5046529;28;20049;-84
2021/01/07 07:02:29;;;;;;;12.80;6.47;;;2.30;99.90;;;;;;5047713;28;20099;-84
2021/01/07 07:05:04;;;;;;;15.77;7.45;;;2.20;99.90;;;;;;5046935;28;20021;-84
2021/01/07 07:07:39;;;;;;;14.82;8.98;;;2.30;99.90;;;;;;5065887;28;20059;-84
2021/01/07 07:10:23;;;;;;;16.33;9.10;;;2.30;99.90;;;;;;5047204;28;20063;-84
2021/01/07 07:12:50;;;;;;;20.25;11.02;;;2.30;99.90;;;;;;5047498;28;20040;-84
2021/01/07 07:15:21;;;;;;;18.90;12.43;;;2.30;99.90;;;;;;5046410;28;20028;-84
2021/01/07 07:17:47;;;;;;;23.60;14.00;;;2.30;99.90;;;;;;5048973;28;20021;-84
2021/01/07 07:20:20;;;;;;;22.10;12.95;;;2.30;99.90;;;;;;5046511;28;20108;-84
2021/01/07 07:22:46;;;;;;;22.05;12.63;;;2.30;99.90;;;;;;5065015;28;20095;-84
2021/01/07 07:25:15;;;;;;;20.35;13.07;;;2.30;99.90;;;;;;5046699;28;20472;-84
2021/01/07 07:28:04;;;;;;;25.17;13.80;;;2.30;99.90;;;;;;5061016;28;20037;-85
2021/01/07 07:30:34;;;;;;;21.75;13.55;;;2.30;99.90;;;;;;5044527;28;20488;-84
2021/01/07 07:33:00;;;;;;;22.27;14.68;;;2.30;99.90;;;;;;5048380;28;20025;-84
2021/01/07 07:35:28;;;;;;;24.17;15.13;;;2.30;99.90;;;;;;5035125;28;20362;-84
2021/01/07 07:37:55;;;;;;;21.90;14.35;;;2.30;99.90;;;;;;5054035;28;20035;-84
2021/01/07 07:40:34;;;;;;;26.25;16.13;;;2.30;99.90;;;;;;5052728;28;20029;-83
2021/01/07 07:43:00;;;;;;;23.90;14.52;;;2.30;99.90;;;;;;5037494;28;20064;-83
2021/01/07 07:45:27;;;;;;;21.85;13.80;;;2.30;99.90;;;;;;5036086;28;20029;-83
2021/01/07 07:47:53;;;;;;;23.65;14.70;;;2.40;99.90;;;;;;5036940;28;20051;-83
2021/01/07 07:50:27;;;;;;;22.77;14.27;;;2.30;99.90;;;;;;5056912;28;20028;-84
2021/01/07 07:53:05;;;;;;;22.00;13.50;;;2.40;99.90;;;;;;5074848;28;20396;-83
2021/01/07 07:55:35;;;;;;;21.70;12.88;;;2.40;99.90;;;;;;5056907;28;20028;-84
2021/01/07 07:58:08;;;;;;;20.93;12.80;;;2.40;99.90;;;;;;5074357;28;20025;-83
2021/01/07 08:00:34;;;;;;;19.40;12.00;;;2.40;99.90;;;;;;5057009;28;20028;-83
2021/01/07 08:03:00;;;;;;;19.73;12.45;;;2.40;99.90;;;;;;5056821;28;20025;-83
2021/01/07 08:05:30;;;;;;;19.23;11.77;;;2.40;99.90;;;;;;5068517;28;20047;-83
2021/01/07 08:07:56;;;;;;;19.48;11.80;;;2.40;99.90;;;;;;5040346;28;20411;-83
2021/01/07 08:10:22;;;;;;;19.00;11.45;;;2.40;99.90;;;;;;5039923;28;20032;-83
2021/01/07 08:12:51;;;;;;;17.55;10.40;;;2.50;99.90;;;;;;5036536;28;20075;-83
2021/01/07 08:15:29;;;;;;;18.02;11.07;;;2.50;99.90;;;;;;5036598;28;20284;-83
2021/01/07 08:17:55;;;;;;;18.48;11.55;;;2.50;99.90;;;;;;5054125;28;20530;-83
2021/01/07 08:20:27;;;;;;;21.10;12.15;;;2.50;99.90;;;;;;5045436;28;20028;-84
2021/01/07 08:22:53;;;;;;;20.13;11.10;;;2.50;99.90;;;;;;5064879;28;20033;-83
2021/01/07 08:25:26;;;;;;;20.90;10.88;;;2.50;99.90;;;;;;5054392;28;20021;-83
2021/01/07 08:27:58;;;;;;;16.30;10.63;;;2.60;99.90;;;;;;5036718;28;20062;-83
2021/01/07 08:30:25;;;;;;;22.67;12.35;;;2.50;99.90;;;;;;5036501;28;20063;-84
2021/01/07 08:32:55;;;;;;;17.38;10.57;;;2.50;99.90;;;;;;5036240;28;20029;-84
2021/01/07 08:35:22;;;;;;;19.63;11.90;;;2.60;99.90;;;;;;5054152;28;20599;-83
2021/01/07 08:37:47;;;;;;;20.13;11.25;;;2.60;99.90;;;;;;5055599;28;20033;-83
2021/01/07 08:40:13;;;;;;;18.98;11.35;;;2.60;99.90;;;;;;5074474;28;20096;-83
2021/01/07 08:42:39;;;;;;;16.98;10.32;;;2.70;99.90;;;;;;5052989;28;20098;-83
2021/01/07 08:45:06;;;;;;;18.35;10.27;;;2.60;99.90;;;;;;5046482;28;20028;-83
2021/01/07 08:47:32;;;;;;;16.10;9.93;;;2.70;99.90;;;;;;5053944;28;20116;-83
2021/01/07 08:50:11;;;;;;;19.52;9.55;;;2.70;99.90;;;;;;5036146;28;20056;-83
2021/01/07 08:52:52;;;;;;;16.98;11.15;;;2.70;99.90;;;;;;5065500;28;20040;-83
2021/01/07 08:55:17;;;;;;;;;;;2.70;99.90;;;;;;5074227;28;20029;-83
2021/01/07 08:57:43;;;;;;;16.42;10.02;;;2.70;99.90;;;;;;5083251;28;19992;-83
2021/01/07 09:00:27;;;;;;;16.92;9.82;;;2.70;99.90;;;;;;5092407;28;20039;-83
2021/01/07 09:03:01;;;;;;;15.02;10.07;;;2.70;99.90;;;;;;5092721;28;20020;-83
2021/01/07 09:05:28;;;;;;;14.57;9.35;;;2.70;99.90;;;;;;5085670;28;20021;-83
2021/01/07 09:08:11;;;;;;;13.65;9.02;;;2.80;99.90;;;;;;5072413;28;20032;-83
2021/01/07 09:10:37;;;;;;;13.52;8.43;;;2.80;99.90;;;;;;5071425;28;20025;-83
2021/01/07 09:13:20;;;;;;;14.35;8.70;;;2.80;99.90;;;;;;5072256;28;20020;-82
2021/01/07 09:15:46;;;;;;;14.85;9.27;;;2.80;99.90;;;;;;5071891;28;20382;-83
2021/01/07 09:18:12;;;;;;;14.68;8.65;;;2.80;99.90;;;;;;5072284;28;20158;-83
2021/01/07 09:20:38;;;;;;;11.98;8.57;;;2.80;99.90;;;;;;5071878;28;20048;-83
2021/01/07 09:23:08;;;;;;;11.00;8.40;;;2.90;99.90;;;;;;5072024;28;20547;-83
2021/01/07 09:25:34;;;;;;;12.50;7.80;;;2.90;99.90;;;;;;5062500;28;20082;-82
2021/01/07 09:28:00;;;;;;;11.82;8.25;;;2.90;99.90;;;;;;5048242;28;20036;-83
2021/01/07 09:30:27;;;;;;;11.07;8.50;;;3.00;99.90;;;;;;5057908;28;20032;-83
2021/01/07 09:32:54;;;;;;;9.93;6.85;;;3.00;99.90;;;;;;5089369;28;20107;-83
2021/01/07 09:35:20;;;;;;;11.93;7.93;;;3.00;99.90;;;;;;5080817;28;20034;-84
2021/01/07 09:37:45;;;;;;;10.45;6.68;;;3.00;99.90;;;;;;5073929;28;20099;-83
2021/01/07 09:40:12;;;;;;;9.43;6.38;;;3.00;99.90;;;;;;5091664;28;20020;-83
2021/01/07 09:42:37;;;;;;;11.05;6.85;;;3.00;99.90;;;;;;5054742;28;20079;-82
2021/01/07 09:45:05;;;;;;;8.55;6.55;;;3.00;99.90;;;;;;5048804;28;20146;-82
2021/01/07 09:47:31;;;;;;;7.55;5.60;;;3.00;99.90;;;;;;5069074;28;20395;-83
2021/01/07 09:49:58;;;;;;;9.75;5.97;;;3.00;99.90;;;;;;5091476;28;20024;-83
2021/01/07 09:52:24;;;;;;;8.93;6.78;;;3.00;99.90;;;;;;5077881;28;20048;-83
2021/01/07 09:54:50;;;;;;;8.50;6.55;;;3.00;99.90;;;;;;5049589;28;20537;-83
2021/01/07 09:57:15;;;;;;;9.75;6.68;;;3.00;99.90;;;;;;5072204;28;20070;-83
2021/01/07 09:59:41;;;;;;;9.98;7.25;;;3.00;99.90;;;;;;5054481;28;20042;-82
2021/01/07 10:02:08;;;;;;;11.82;8.32;;;3.00;99.90;;;;;;5058272;28;20020;-82
2021/01/07 10:04:34;;;;;;;11.63;8.60;;;3.10;99.90;;;;;;5054369;28;20102;-83
2021/01/07 10:07:00;;;;;;;10.50;8.52;;;3.10;99.90;;;;;;5050516;28;20033;-83
2021/01/07 10:09:26;;;;;;;13.98;8.50;;;3.10;99.90;;;;;;5054165;28;20061;-83
2021/01/07 10:11:53;;;;;;;10.60;7.82;;;3.10;99.90;;;;;;5053858;28;20025;-83
2021/01/07 10:14:20;;;;;;;13.98;8.85;;;3.10;99.90;;;;;;5072344;28;20067;-83
2021/01/07 10:16:56;;;;;;;11.95;8.15;;;3.10;99.90;;;;;;5051349;28;20074;-83
2021/01/07 10:19:24;;;;;;;7.80;6.03;;;3.20;99.90;;;;;;5038432;28;20049;-83
2021/01/07 10:22:09;;;;;;;9.23;6.05;;;3.10;99.90;;;;;;5044613;28;20060;-83
2021/01/07 10:24:46;;;;;;;7.82;5.50;;;3.20;99.90;;;;;;5054744;28;20016;-83
2021/01/07 10:27:15;;;;;;;11.40;6.68;;;3.20;99.90;;;;;;5053939;28;20418;-83
2021/01/07 10:29:42;;;;;;;9.38;6.30;;;3.30;99.90;;;;;;5053589;28;20538;-82
2021/01/07 10:32:14;;;;;;;7.45;5.97;;;3.30;99.90;;;;;;5056480;28;20068;-83
2021/01/07 10:34:46;;;;;;;7.35;4.93;;;3.30;99.90;;;;;;5074235;28;20430;-83
2021/01/07 10:37:13;;;;;;;5.57;4.35;;;3.30;99.90;;;;;;5044191;28;20021;-83
2021/01/07 10:39:41;;;;;;;5.97;4.43;;;3.30;99.90;;;;;;5055678;28;20422;-83
2021/01/07 10:42:10;;;;;;;7.47;3.95;;;3.30;99.90;;;;;;5056784;28;20021;-83
2021/01/07 10:44:37;;;;;;;6.43;4.47;;;3.40;99.90;;;;;;5041820;28;20033;-83
2021/01/07 10:47:05;;;;;;;6.28;4.57;;;3.40;99.90;;;;;;5055880;28;20108;-83
2021/01/07 10:49:33;;;;;;;6.85;4.70;;;3.40;99.90;;;;;;5043709;28;20063;-82
2021/01/07 10:52:07;;;;;;;6.38;4.45;;;3.40;99.90;;;;;;5055653;28;20036;-83
2021/01/07 10:54:57;;;;;;;6.50;4.30;;;3.40;99.90;;;;;;5093789;28;20567;-82
2021/01/07 10:57:37;;;;;;;7.75;4.53;;;3.40;99.90;;;;;;5084499;28;20435;-83
2021/01/07 11:00:13;;;;;;;6.22;4.43;;;3.40;99.90;;;;;;5094607;28;20024;-82
2021/01/07 11:03:00;;;;;;;5.38;3.85;;;3.50;99.90;;;;;;5094805;28;20024;-83
2021/01/07 11:05:29;;;;;;;6.55;3.55;;;3.50;99.90;;;;;;5080204;28;20020;-83
2021/01/07 11:07:57;;;;;;;5.35;3.35;;;3.50;99.90;;;;;;5095854;28;20050;-82
2021/01/07 11:10:23;;;;;;;3.90;2.92;;;3.50;99.90;;;;;;5094622;28;20060;-82
2021/01/07 11:12:55;;;;;;;4.20;2.60;;;3.60;99.90;;;;;;5095786;28;20071;-83
2021/01/07 11:15:24;;;;;;;4.38;2.70;;;3.60;99.90;;;;;;5095246;28;20022;-83
2021/01/07 11:17:58;;;;;;;3.43;2.50;;;3.50;99.90;;;;;;5086765;28;20484;-83
2021/01/07 11:20:26;;;;;;;3.67;3.03;;;3.50;99.90;;;;;;5076839;28;20275;-85
2021/01/07 11:22:54;;;;;;;4.25;3.35;;;3.50;99.90;;;;;;5087134;28;20028;-83
2021/01/07 11:25:20;;;;;;;5.38;3.88;;;3.60;99.90;;;;;;5074244;28;20438;-83
2021/01/07 11:27:47;;;;;;;8.05;4.25;;;3.60;99.90;;;;;;5085844;28;20036;-81
2021/01/07 11:30:13;;;;;;;5.40;3.92;;;3.50;99.90;;;;;;5087902;28;20073;-82
2021/01/07 11:32:38;;;;;;;6.68;4.93;;;3.50;99.90;;;;;;5086823;28;20077;-83
2021/01/07 11:35:07;;;;;;;4.85;3.80;;;3.50;99.90;;;;;;5083300;28;20414;-82
2021/01/07 11:37:42;;;;;;;4.13;3.55;;;3.50;99.90;;;;;;5095610;28;20020;-83
2021/01/07 11:40:13;;;;;;;9.35;5.53;;;3.50;99.90;;;;;;5106443;28;20012;-82
2021/01/07 11:43:10;;;;;;;4.43;3.60;;;3.50;99.90;;;;;;5093934;28;20020;-82
2021/01/07 11:45:38;;;;;;;4.85;3.17;;;3.50;99.90;;;;;;5081689;28;20029;-82
2021/01/07 11:48:05;;;;;;;4.85;3.60;;;3.60;99.90;;;;;;5093297;28;20077;-82
2021/01/07 11:50:37;;;;;;;4.80;3.60;;;3.50;99.90;;;;;;5084204;28;20025;-82
2021/01/07 11:53:05;;;;;;;3.50;2.90;;;3.60;99.90;;;;;;5074356;28;20048;-82
2021/01/07 11:55:34;;;;;;;4.85;3.60;;;3.60;99.90;;;;;;5081833;28;20127;-82
2021/01/07 11:57:59;;;;;;;3.40;2.80;;;3.60;99.90;;;;;;5079577;28;20472;-82
2021/01/07 12:00:25;;;;;;;4.47;3.38;;;3.60;99.90;;;;;;5080575;28;20077;-82
2021/01/07 12:02:56;;;;;;;3.03;2.47;;;3.60;99.90;;;;;;5093265;28;20142;-83
2021/01/07 12:05:24;;;;;;;4.93;2.40;;;3.60;99.90;;;;;;5089150;28;20024;-82
2021/01/07 12:08:05;;;;;;;5.78;2.95;;;3.60;99.90;;;;;;5081035;28;20119;-82
2021/01/07 12:10:33;;;;;;;2.92;2.25;;;3.60;99.90;;;;;;5091074;28;20032;-82
2021/01/07 12:13:23;;;;;;;3.08;2.20;;;3.60;99.90;;;;;;5093207;28;20051;-82
2021/01/07 12:15:53;;;;;;;2.58;2.30;;;3.70;99.90;;;;;;5083513;28;20024;-82
2021/01/07 12:18:19;;;;;;;2.90;2.28;;;3.70;99.90;;;;;;5084161;28;20020;-82
2021/01/07 12:20:46;;;;;;;2.85;2.13;;;3.70;99.90;;;;;;5091001;28;20047;-82
2021/01/07 12:23:13;;;;;;;2.47;1.75;;;3.70;99.90;;;;;;5091134;28;20566;-82
2021/01/07 12:25:41;;;;;;;2.10;1.20;;;3.70;99.90;;;;;;5081911;28;20060;-82
2021/01/07 12:28:08;;;;;;;1.30;1.00;;;3.70;99.90;;;;;;5095870;28;20024;-81
2021/01/07 12:30:38;;;;;;;2.00;0.93;;;3.70;99.90;;;;;;5081463;28;20054;-82
2021/01/07 12:33:21;;;;;;;2.25;1.10;;;3.70;99.90;;;;;;5086483;28;20024;-81
2021/01/07 12:36:02;;;;;;;2.33;1.10;;;3.70;99.90;;;;;;5075610;28;20024;-80
2021/01/07 12:38:48;;;;;;;2.10;1.15;;;3.70;99.90;;;;;;5093848;28;20027;-81
2021/01/07 12:41:30;;;;;;;2.75;1.42;;;3.80;99.90;;;;;;5094143;28;20035;-81
2021/01/07 12:43:56;;;;;;;3.47;2.17;;;3.80;99.90;;;;;;5092478;28;20031;-81
2021/01/07 12:46:25;;;;;;;5.55;1.75;;;3.80;99.90;;;;;;5093506;28;20043;-80
2021/01/07 12:48:51;;;;;;;4.97;2.20;;;3.90;99.90;;;;;;5059966;28;20096;-81
2021/01/07 12:51:17;;;;;;;5.47;2.15;;;3.90;99.90;;;;;;5091733;28;20040;-81
2021/01/07 12:53:43;;;;;;;3.55;1.98;;;3.90;99.90;;;;;;5086556;28;20024;-82
2021/01/07 12:56:17;;;;;;;7.63;2.35;;;4.00;99.90;;;;;;5092005;28;20020;-82
2021/01/07 12:58:47;;;;;;;4.25;2.42;;;4.00;99.90;;;;;;5083552;28;20016;-82